Accueil
METAR-TAF:

METAR-TAF

Aéroports :

Avord, France

Base aérienne 702 Avord

latitude: 47-03-12N, longitude: 002-37-57E, altitude: 177 m

Observation

Le bulletin a été fait il y a 22 minutes, à 20:30 UTC
Vent 5 kt de ouest/sud-ouest
Température 14°C
Humidité 77%
Pression 1016 hPa
Visibilité 10 km ou plus
pas de nuages en-dessous de 1500 mètres et pas de cumulonimbus.

METAR: LFOA 242030Z AUTO 24005KT CAVOK 14/10 Q1016 NOSIG

Heure: 22:52 (20:52 UTC)

Prévision

Le bulletin a été fait il y a 52 minutes, à 20:00 UTC
Prévision valable du 24 à 21 UTC au 25 à 21 UTC
Vent 5 kt de ouest
Visibilité 10 km ou plus
Quelques nuages à une hauteur de 4500 ft
Temporairement
du 25 à 06 UTC au 25 à 09 UTC
Nuages fragmentés à une hauteur de 1000 ft

TAF: LFOA 242000Z 2421/2521 27005KT 9999 FEW045 TEMPO 2506/2509 BKN010

Observations et prévisions météorologiques de plus de 4000 aéroports (messages METAR et TAF).

Les stations disponibles sont représentées par des disques jaunes et rouges sur la carte.

Passer la souris dessus pour voir le nom de la station.

Cliquer dessus pour voir les observations et prévisions météorologiques.

Pour changer de carte: cliquez sur les boutons verts avec une croix noire pour zoomer, sur le bouton vert avec un tiret pour effectuer un zoom arrière, ou sur les flèches vertes pour les cartes adjacentes.


METAR-TAF: